Time;durP1;ratioP1;P1;durP2;ratioP2;P2;SDS_P1;SDS_P2;PMS_P1;PMS_P2;Temp;Humidity;BMP_temperature;BMP_pressure;BME280_temperature;BME280_humidity;BME280_pressure;Samples;Min_cycle;Max_cycle;Signal;HPM_P1;HPM_P2
2022/02/26 14:00:37;;;;;;;9.70;2.95;;;;;;;;;;5330754;23;20038;-92
2022/02/26 14:09:33;;;;;;;;;;;;;;;;;;;;;
2022/02/26 14:12:41;;;;;;;12.48;2.58;;;;;;;;;;5019591;28;20212;-93
2022/02/26 14:15:37;;;;;;;;;;;;;;;;;;;;;
2022/02/26 14:18:28;;;;;;;14.27;2.70;;;;;;;;;;4984627;28;20133;-93
2022/02/26 14:21:29;;;;;;;;;;;;;;;;;;;;;
2022/02/26 14:37:42;;;;;;;16.17;2.40;;;;;;;;;;5009911;28;20038;-93
2022/02/26 14:40:48;;;;;;;12.90;2.38;;;;;;;;;;5079206;23;20226;-93
2022/02/26 14:44:08;;;;;;;;;;;;;;;;;;;;;
2022/02/26 14:47:13;;;;;;;12.02;2.20;;;;;;;;;;4988414;28;20202;-92
2022/02/26 14:49:56;;;;;;;7.60;1.60;;;;;;;;;;4969537;28;20174;-92
2022/02/26 14:52:44;;;;;;;13.00;2.35;;;;;;;;;;4967755;28;20078;-92
2022/02/26 14:55:25;;;;;;;12.27;2.40;;;;;;;;;;4966458;28;20424;-92
2022/02/26 14:58:22;;;;;;;10.90;2.20;;;;;;;;;;4975176;28;20047;-92
2022/02/26 15:01:16;;;;;;;14.32;2.65;;;;;;;;;;5005222;28;20050;-92
2022/02/26 15:04:01;;;;;;;15.55;2.47;;;;;;;;;;4991963;28;20171;-92
2022/02/26 15:06:59;;;;;;;11.45;2.10;;;;;;;;;;4984713;28;20054;-91
2022/02/26 15:18:07;;;;;;;8.95;2.53;;;;;;;;;;5006589;28;20147;-92
2022/02/26 15:20:58;;;;;;;14.48;2.63;;;;;;;;;;4993150;28;20046;-92
2022/02/26 16:36:42;;;;;;;;;;;;;;;;;;;;;
2022/02/26 16:39:24;;;;;;;14.18;5.35;;;;;;;;;;5050481;23;20072;-92
2022/02/26 16:44:41;;;;;;;11.65;4.68;;;;;;;;;;5024986;28;20452;-92
2022/02/26 16:47:51;;;;;;;12.95;3.80;;;;;;;;;;5025198;28;20046;-92
2022/02/26 16:50:45;;;;;;;;;;;;;;;;;;;;;
2022/02/26 16:56:38;;;;;;;11.38;2.85;;;;;;;;;;5174310;23;20057;-92
2022/02/26 16:59:26;;;;;;;8.55;2.65;;;;;;;;;;5030689;28;20732;-92
2022/02/26 17:02:17;;;;;;;;;;;;;;;;;;;;;
2022/02/26 17:05:05;;;;;;;18.75;6.93;;;;;;;;;;5311730;23;20990;-93
2022/02/26 17:08:05;;;;;;;24.75;9.93;;;;;;;;;;4998913;28;20174;-92
2022/02/26 17:10:46;;;;;;;22.85;8.52;;;;;;;;;;5159096;23;20050;-93
2022/02/26 17:16:16;;;;;;;;;;;;;;;;;;5166290;22;20137;-91
2022/02/26 17:19:01;;;;;;;14.00;3.25;;;;;;;;;;5028172;28;19996;-92
2022/02/26 17:21:42;;;;;;;10.23;2.92;;;;;;;;;;5031534;28;20024;-92
2022/02/26 17:30:12;;;;;;;15.60;7.45;;;;;;;;;;4985698;28;20037;-91
2022/02/26 17:32:58;;;;;;;15.13;4.07;;;;;;;;;;4973428;28;20054;-92
2022/02/26 17:35:58;;;;;;;12.48;3.55;;;;;;;;;;5163568;23;20111;-93
2022/02/26 17:38:49;;;;;;;11.02;2.67;;;;;;;;;;5026985;28;20081;-93
2022/02/26 17:41:30;;;;;;;12.73;2.53;;;;;;;;;;5233010;22;20060;-91
2022/02/26 17:44:22;;;;;;;10.55;2.20;;;;;;;;;;5172021;23;20061;-91
2022/02/26 17:47:04;;;;;;;12.68;2.88;;;;;;;;;;5033584;28;20025;-92
2022/02/26 17:49:51;;;;;;;16.38;2.65;;;;;;;;;;5040071;28;20029;-92
2022/02/26 17:53:09;;;;;;;13.88;2.40;;;;;;;;;;5044893;28;20080;-92
2022/02/26 17:56:10;;;;;;;;;;;;;;;;;;;;;
2022/02/26 17:59:15;;;;;;;15.30;3.85;;;;;;;;;;5044858;28;20101;-92
2022/02/26 18:01:57;;;;;;;14.70;2.10;;;;;;;;;;5187104;22;20034;-93
2022/02/26 18:04:43;;;;;;;16.85;2.63;;;;;;;;;;5033392;28;20085;-93
2022/02/26 18:07:32;;;;;;;16.50;2.42;;;;;;;;;;5029861;28;20045;-93
2022/02/26 18:10:27;;;;;;;15.13;2.70;;;;;;;;;;5046432;28;20037;-92
2022/02/26 18:13:28;;;;;;;11.73;3.17;;;;;;;;;;5046851;28;20045;-93
2022/02/26 18:30:10;;;;;;;23.23;7.35;;;;;;;;;;5299474;22;19921;-92
2022/02/26 18:32:46;;;;;;;150.68;54.42;;;;;;;;;;5031233;28;20096;-91
2022/02/26 18:35:24;;;;;;;170.45;57.65;;;;;;;;;;5032972;28;20053;-91
2022/02/26 18:38:12;;;;;;;53.58;19.05;;;;;;;;;;5029502;28;20109;-92
2022/02/26 18:40:55;;;;;;;213.80;76.35;;;;;;;;;;5026417;28;20056;-92
2022/02/26 18:43:45;;;;;;;362.70;132.30;;;;;;;;;;5025712;28;20080;-92
2022/02/26 18:46:19;;;;;;;268.92;106.15;;;;;;;;;;5030939;28;20053;-92
2022/02/26 18:49:09;;;;;;;153.13;62.75;;;;;;;;;;5034437;28;20053;-92
2022/02/26 18:54:36;;;;;;;79.30;29.07;;;;;;;;;;5959373;22;20971;-92
2022/02/26 19:00:25;;;;;;;147.45;54.25;;;;;;;;;;6046482;23;20811;-94
2022/02/26 19:09:23;;;;;;;43.08;15.40;;;;;;;;;;5046579;28;20060;-92
2022/02/26 19:12:14;;;;;;;49.78;16.42;;;;;;;;;;5046606;28;20058;-92
2022/02/26 19:15:14;;;;;;;37.15;12.93;;;;;;;;;;5030047;28;20112;-90
2022/02/26 19:18:08;;;;;;;30.30;7.57;;;;;;;;;;5048668;28;20201;-92
2022/02/26 19:20:52;;;;;;;20.25;5.22;;;;;;;;;;5033705;28;20057;-91
2022/02/26 19:23:39;;;;;;;24.65;7.28;;;;;;;;;;5035800;28;20053;-92
2022/02/26 19:30:12;;;;;;;30.58;7.65;;;;;;;;;;4987426;28;20039;-92
2022/02/26 19:33:32;;;;;;;24.58;9.77;;;;;;;;;;4972738;28;20181;-92
2022/02/26 19:36:47;;;;;;;20.08;6.63;;;;;;;;;;5033710;28;20072;-93
2022/02/26 19:39:54;;;;;;;22.35;7.72;;;;;;;;;;5051038;28;20087;-92
2022/02/26 19:42:38;;;;;;;25.90;7.20;;;;;;;;;;5084868;23;20045;-93
2022/02/26 19:45:27;;;;;;;22.77;8.52;;;;;;;;;;5030453;28;20053;-93
2022/02/26 19:48:46;;;;;;;20.58;7.32;;;;;;;;;;5044591;28;20117;-93
2022/02/26 19:51:38;;;;;;;26.52;9.30;;;;;;;;;;5032502;28;20097;-92
2022/02/26 19:54:48;;;;;;;30.15;7.25;;;;;;;;;;5034386;28;20088;-93
2022/02/26 19:57:38;;;;;;;22.65;6.40;;;;;;;;;;5033662;28;20096;-93
2022/02/26 20:00:36;;;;;;;23.90;8.63;;;;;;;;;;5029010;28;20113;-93
2022/02/26 20:03:32;;;;;;;27.10;9.48;;;;;;;;;;5033246;28;20042;-93
2022/02/26 20:06:46;;;;;;;51.95;22.67;;;;;;;;;;5031032;28;20041;-92
2022/02/26 20:09:27;;;;;;;;;;;;;;;;;;5033149;28;20060;-92
2022/02/26 20:12:31;;;;;;;108.28;41.47;;;;;;;;;;5029346;28;19921;-92
2022/02/26 20:15:38;;;;;;;76.10;26.50;;;;;;;;;;5028051;28;20068;-92
2022/02/26 20:18:28;;;;;;;46.30;18.35;;;;;;;;;;5025103;28;20052;-92
2022/02/26 20:21:24;;;;;;;52.95;17.58;;;;;;;;;;5031689;28;20042;-92
2022/02/26 20:24:09;;;;;;;36.28;14.65;;;;;;;;;;5028717;28;20042;-92
2022/02/26 20:26:54;;;;;;;47.88;15.13;;;;;;;;;;5028279;28;20045;-91
2022/02/26 20:29:39;;;;;;;33.15;10.98;;;;;;;;;;5012180;28;20034;-92
2022/02/26 20:32:20;;;;;;;34.70;12.55;;;;;;;;;;5026394;28;20101;-92
2022/02/26 20:35:09;;;;;;;53.78;17.65;;;;;;;;;;5024860;28;20185;-92
2022/02/26 20:38:28;;;;;;;33.53;12.85;;;;;;;;;;5029533;28;20127;-92
2022/02/26 20:41:17;;;;;;;26.73;11.90;;;;;;;;;;5030251;28;20053;-93
2022/02/26 20:44:08;;;;;;;31.67;11.88;;;;;;;;;;5033627;28;20228;-92
2022/02/26 20:46:57;;;;;;;33.63;10.52;;;;;;;;;;5029743;28;20045;-91
2022/02/26 20:49:47;;;;;;;28.90;10.05;;;;;;;;;;5026275;28;20058;-91
2022/02/26 20:52:29;;;;;;;27.02;9.23;;;;;;;;;;5026489;28;20025;-92
2022/02/26 20:55:12;;;;;;;18.33;7.65;;;;;;;;;;5024090;28;20053;-92
2022/02/26 20:57:59;;;;;;;17.15;7.00;;;;;;;;;;5081157;23;20311;-92
2022/02/26 21:00:56;;;;;;;31.75;8.23;;;;;;;;;;5018567;28;20054;-92
2022/02/26 21:03:40;;;;;;;17.70;7.28;;;;;;;;;;4992607;28;20077;-92
2022/02/26 21:06:24;;;;;;;19.90;7.57;;;;;;;;;;5006207;28;20105;-92
2022/02/26 21:09:08;;;;;;;23.20;9.77;;;;;;;;;;4994256;28;20053;-92
2022/02/26 21:12:04;;;;;;;30.42;9.90;;;;;;;;;;4996242;28;20045;-92
2022/02/26 21:14:52;;;;;;;20.30;6.88;;;;;;;;;;5006448;28;20082;-93
2022/02/26 21:17:56;;;;;;;22.38;6.68;;;;;;;;;;4991228;28;20054;-92
2022/02/26 21:20:48;;;;;;;21.23;6.20;;;;;;;;;;5005813;28;20074;-92
2022/02/26 21:23:32;;;;;;;20.33;6.38;;;;;;;;;;4988848;28;20089;-92
2022/02/26 21:26:25;;;;;;;17.30;5.95;;;;;;;;;;5006005;28;20049;-93
2022/02/26 21:30:01;;;;;;;;;;;;;;;;;;;;;
2022/02/26 21:35:58;;;;;;;22.15;6.13;;;;;;;;;;5278314;23;20253;-93
2022/02/26 21:42:25;;;;;;;12.15;5.65;;;;;;;;;;4932981;28;20039;-93
2022/02/26 21:45:58;;;;;;;;;;;;;;;;;;;;;
2022/02/26 21:53:15;;;;;;;;;;;;;;;;;;;;;
2022/02/26 21:59:13;;;;;;;;;;;;;;;;;;;;;
2022/02/26 22:11:03;;;;;;;14.90;5.40;;;;;;;;;;5473981;22;20057;-92
2022/02/26 22:14:32;;;;;;;9.30;4.40;;;;;;;;;;4932438;29;20294;-92
2022/02/26 23:19:03;;;;;;;13.73;3.08;;;;;;;;;;4972986;28;20129;-94
2022/02/26 23:22:18;;;;;;;13.25;2.90;;;;;;;;;;4974978;28;20065;-94
2022/02/26 23:24:59;;;;;;;10.30;3.28;;;;;;;;;;4959576;28;20051;-93
2022/02/26 23:27:38;;;;;;;9.18;2.97;;;;;;;;;;4959427;28;20046;-94
2022/02/26 23:30:10;;;;;;;7.90;3.53;;;;;;;;;;4960402;28;20112;-94
2022/02/26 23:33:09;;;;;;;13.85;4.60;;;;;;;;;;4976944;28;20069;-94
2022/02/26 23:35:53;;;;;;;12.73;4.20;;;;;;;;;;4961364;28;20118;-94
2022/02/26 23:42:09;;;;;;;12.02;3.85;;;;;;;;;;4975483;28;20073;-94
2022/02/26 23:44:59;;;;;;;8.60;3.17;;;;;;;;;;4961711;28;20057;-93
2022/02/26 23:47:35;;;;;;;9.27;4.20;;;;;;;;;;4981836;28;20436;-93
2022/02/26 23:50:04;;;;;;;7.13;4.05;;;;;;;;;;4961163;28;20054;-94
2022/02/26 23:52:30;;;;;;;8.50;3.50;;;;;;;;;;4957086;28;20082;-94
2022/02/26 23:55:00;;;;;;;11.98;2.95;;;;;;;;;;4958115;28;20370;-93
2022/02/26 23:57:27;;;;;;;9.85;4.03;;;;;;;;;;4961282;28;20106;-93
2022/02/26 23:59:55;;;;;;;12.77;4.15;;;;;;;;;;4961035;28;20346;-93
